Saint Paul Island, Canada
Current Conditions -  °F | °C
As of 9:00 AM on Friday 28 Nov 2014 (Local Time) from CWZB Reporting Station
Overcast Overcast  
Wind Chill: 21°   Ceiling: 1900
Heat Index: 30°   Visibility: 9mi
Dew Point: 23°   Wind: 12mph
Humidity: 73%   Direction: 350°N
Pressure: 29.91"   Gusts: 22mph
Location:  47.21°N, 60.14°W
Report Text: CWZB 281300Z AUTO 35010G19KT 9SM OVC019 M01/M05 A2991 RMK SLP130 PK WND 36019/// T10091051 70004 WSI/SWOB
Loading
Personal Weather Stations






























Interactive Weather Map New forecast layout! Learn more

10-Day Weather Forecast

Advertisements
Track Severe Weather on mobile